Main page
METAR-TAF:

METAR-TAF

Airports :

Brive-la-Gaillarde, France

Brive–Dordogne Valley Airport

latitude: 45-02-28N, longitude: 001-28-59E, elevation: 311 m

Current weather observation

The report was made 20 minutes ago, at 08:30 UTC
Wind 4 kt from the East/Southeast
Temperature 21°C
Humidity 64%
Pressure 1011 hPa
Visibility 10 km or more
no clouds below 1500 m and no cumulonimbus

METAR: LFSL 260830Z AUTO 12004KT CAVOK 21/14 Q1011 TEMPO BKN050 SCT070TCU

Time: 10:50 (08:50 UTC)


TAF: missing

Weather observations and forecasts of more than 4000 airports (METAR and TAF reports).

The available stations are represented by yellow and red dots on the map.

Hover mouse over dot to see the name of the station.

Then click to see weather observations and forecasts.

To change the map : click on the green buttons with a black cross to zoom in, on the green button with a dash to zoom out, or on the green arrows for adjacent maps.


METAR-TAF: